Roseville, California
Current Conditions -  °F | °C
As of 2:35 AM on Sunday 26 Oct 2014 (Local Time) from KLHM Reporting Station
Clear Clear  
Wind Chill: 54°   Ceiling: Unl
Heat Index: 54°   Visibility: 10mi
Dew Point: 52°   Wind: 3mph
Humidity: 94%   Direction: 120°ESE
Pressure: 30.14"   Gusts: NA
Location:  38.75°N, 121.28°W
Report Text: KLHM 260935Z AUTO 12003KT 10SM CLR 12/11 A3014 RMK AO1
Loading
Personal Weather Stations






























Interactive Weather Map New forecast layout! Learn more

10-Day Weather Forecast

Advertisements
Track Severe Weather on mobile